createdAt,value
2022-12-04T00:03:25.735Z,69.63
2022-12-04T00:08:30.500Z,71.10
2022-12-04T00:13:34.794Z,82.50
2022-12-04T00:18:38.910Z,72.37
2022-12-04T00:23:44.617Z,69.07
2022-12-04T00:28:48.855Z,62.83
2022-12-04T00:33:52.330Z,64.37
2022-12-04T00:38:57.490Z,59.53
2022-12-04T00:44:01.370Z,69.93
2022-12-04T00:49:04.935Z,63.47
2022-12-04T00:54:09.708Z,57.90
2022-12-04T00:59:13.525Z,59.20
2022-12-04T01:04:16.972Z,64.10
2022-12-04T01:09:21.766Z,58.10
2022-12-04T01:14:25.166Z,61.43
2022-12-04T01:19:28.580Z,54.87
2022-12-04T01:24:33.362Z,57.57
2022-12-04T01:29:36.883Z,53.67
2022-12-04T01:34:40.221Z,60.27
2022-12-04T01:39:45.078Z,60.47
2022-12-04T01:45:21.847Z,55.27
2022-12-04T01:50:25.506Z,57.13
2022-12-04T01:55:31.021Z,60.47
2022-12-04T02:00:34.473Z,56.67
2022-12-04T02:05:37.892Z,57.73
2022-12-04T02:10:52.929Z,52.70
2022-12-04T02:16:24.708Z,50.60
2022-12-04T02:21:35.480Z,53.90
2022-12-04T02:26:49.004Z,49.43
2022-12-04T02:32:00.223Z,54.67
2022-12-04T02:37:10.087Z,48.83
2022-12-04T02:42:17.982Z,49.03
2022-12-04T02:47:25.530Z,50.47
2022-12-04T02:52:33.268Z,49.17
2022-12-04T02:57:41.664Z,52.03
2022-12-04T03:02:49.964Z,54.03
2022-12-04T03:07:58.460Z,42.53
2022-12-04T03:13:06.654Z,51.70
2022-12-04T03:18:16.368Z,55.27
2022-12-04T03:23:25.069Z,47.13
2022-12-04T03:28:34.719Z,48.23
2022-12-04T03:33:43.819Z,45.20
2022-12-04T03:38:55.254Z,38.10
2022-12-04T03:44:05.273Z,43.63
2022-12-04T03:49:17.932Z,42.87
2022-12-04T03:54:25.196Z,33.03
2022-12-04T03:59:35.569Z,34.47
2022-12-04T04:04:42.765Z,31.83
2022-12-04T04:09:48.843Z,28.40
2022-12-04T04:15:13.365Z,29.93
2022-12-04T04:20:40.262Z,24.37
2022-12-04T04:25:45.215Z,20.67
2022-12-04T04:30:48.593Z,21.10
2022-12-04T04:35:58.950Z,22.00
2022-12-04T04:41:10.596Z,19.57
2022-12-04T04:46:19.611Z,19.87
2022-12-04T04:51:25.474Z,19.43
2022-12-04T04:56:28.987Z,16.60
2022-12-04T05:01:32.425Z,17.13
2022-12-04T05:06:37.215Z,16.70
2022-12-04T05:11:40.570Z,15.10
2022-12-04T05:16:43.964Z,14.37
2022-12-04T05:21:48.821Z,16.93
2022-12-04T05:26:52.186Z,21.37
2022-12-04T05:31:55.610Z,13.87
2022-12-04T05:37:00.451Z,14.70
2022-12-04T05:42:03.847Z,16.23
2022-12-04T05:47:07.442Z,17.60
2022-12-04T05:52:12.487Z,11.90
2022-12-04T05:57:15.962Z,11.43
2022-12-04T06:02:19.623Z,10.77
2022-12-04T06:07:24.475Z,17.03
2022-12-04T06:12:27.873Z,13.73
2022-12-04T06:17:31.229Z,13.77
2022-12-04T06:22:36.134Z,15.73
2022-12-04T06:27:39.492Z,10.27
2022-12-04T06:32:42.888Z,14.13
2022-12-04T06:37:47.691Z,22.53
2022-12-04T06:42:51.194Z,15.17
2022-12-04T06:47:54.566Z,15.53
2022-12-04T06:53:03.493Z,13.87
2022-12-04T06:58:09.984Z,18.30
2022-12-04T07:03:13.417Z,17.33
2022-12-04T07:08:18.968Z,17.23
2022-12-04T07:13:22.396Z,17.13
2022-12-04T07:18:25.767Z,20.33
2022-12-04T07:23:30.571Z,21.67
2022-12-04T07:28:34.158Z,21.90
2022-12-04T07:33:38.353Z,26.43
2022-12-04T07:38:43.805Z,29.67
2022-12-04T07:43:47.354Z,27.60
2022-12-04T07:48:50.722Z,25.13
2022-12-04T07:54:02.010Z,27.97
2022-12-04T07:59:06.755Z,29.00
2022-12-04T08:04:12.084Z,28.20
2022-12-04T08:09:16.911Z,27.53
2022-12-04T08:14:20.389Z,27.97
2022-12-04T08:19:23.870Z,24.57
2022-12-04T08:24:28.652Z,29.77
2022-12-04T08:29:32.023Z,34.53
2022-12-04T08:34:35.702Z,30.67
2022-12-04T08:39:40.437Z,31.93
2022-12-04T08:44:43.824Z,27.33
2022-12-04T08:49:47.254Z,30.57
2022-12-04T08:54:52.849Z,24.33
2022-12-04T08:59:56.490Z,19.37
2022-12-04T09:05:00.123Z,24.83
2022-12-04T09:10:05.905Z,23.20
2022-12-04T09:15:10.357Z,19.47
2022-12-04T09:20:15.132Z,27.63
2022-12-04T09:25:20.274Z,22.57
2022-12-04T09:30:23.721Z,27.03
2022-12-04T09:35:27.166Z,29.80
2022-12-04T09:40:39.712Z,27.70
2022-12-04T09:45:50.199Z,26.27
2022-12-04T09:50:55.453Z,25.17
2022-12-04T09:56:05.790Z,30.10
2022-12-04T10:01:22.200Z,30.33
2022-12-04T10:06:29.638Z,35.40
2022-12-04T10:11:46.125Z,30.57
2022-12-04T10:17:11.086Z,28.13
2022-12-04T10:22:22.730Z,25.47
2022-12-04T10:27:32.262Z,24.70
2022-12-04T10:32:36.454Z,26.67
2022-12-04T10:37:43.361Z,27.80
2022-12-04T10:42:54.657Z,23.73
2022-12-04T10:47:58.230Z,23.13
2022-12-04T10:53:01.870Z,22.23
2022-12-04T10:58:17.322Z,21.27
2022-12-04T11:03:26.667Z,23.80
2022-12-04T11:08:36.525Z,25.83
2022-12-04T11:13:42.299Z,20.53
2022-12-04T11:18:51.196Z,16.43
2022-12-04T11:23:55.274Z,12.50
2022-12-04T11:29:02.607Z,12.63
2022-12-04T11:34:09.514Z,19.83
2022-12-04T11:39:19.633Z,26.70
2022-12-04T11:44:27.796Z,18.97
2022-12-04T11:49:33.139Z,13.23
2022-12-04T11:54:45.682Z,10.67
2022-12-04T12:00:03.906Z,15.53
2022-12-04T12:05:45.039Z,11.33
2022-12-04T12:10:57.231Z,12.60
2022-12-04T12:16:10.972Z,12.57
2022-12-04T12:21:22.665Z,14.07
2022-12-04T12:26:35.704Z,9.83
2022-12-04T12:32:10.847Z,8.20
2022-12-04T12:37:23.610Z,11.13
2022-12-04T12:42:32.234Z,10.50
2022-12-04T12:47:41.658Z,9.57
2022-12-04T12:52:49.137Z,7.87
2022-12-04T12:58:01.994Z,6.83
2022-12-04T13:03:19.666Z,6.27
2022-12-04T13:08:27.809Z,6.57
2022-12-04T13:13:34.413Z,7.83
2022-12-04T13:18:43.477Z,6.83
2022-12-04T13:24:01.069Z,5.50
2022-12-04T13:29:14.847Z,6.53
2022-12-04T13:34:42.961Z,9.40
2022-12-04T13:40:29.453Z,22.47
2022-12-04T13:45:35.096Z,15.97
2022-12-04T13:50:41.661Z,11.10
2022-12-04T13:55:45.033Z,10.40
2022-12-04T14:00:48.509Z,10.57
2022-12-04T14:05:53.977Z,8.90
2022-12-04T14:11:04.038Z,7.87
2022-12-04T14:16:18.937Z,10.43
2022-12-04T14:21:24.411Z,12.13
2022-12-04T14:31:56.319Z,12.87
2022-12-04T14:37:02.426Z,13.53
2022-12-04T14:42:08.747Z,13.70
2022-12-04T14:47:23.386Z,14.70
2022-12-04T14:52:38.418Z,12.97
2022-12-04T14:58:24.103Z,13.33
2022-12-04T15:03:28.908Z,13.90
2022-12-04T15:08:34.469Z,10.73
2022-12-04T15:13:39.876Z,13.47
2022-12-04T15:18:53.715Z,14.87
2022-12-04T15:23:58.551Z,14.30
2022-12-04T15:29:04.388Z,13.90
2022-12-04T15:34:10.664Z,16.70
2022-12-04T15:39:20.004Z,15.50
2022-12-04T15:44:26.436Z,15.90
2022-12-04T15:49:31.273Z,16.37
2022-12-04T15:54:37.369Z,15.10
2022-12-04T15:59:40.856Z,13.10
2022-12-04T16:04:45.644Z,17.60
2022-12-04T16:10:01.312Z,18.23
2022-12-04T16:15:07.774Z,12.27
2022-12-04T16:20:12.799Z,14.17
2022-12-04T16:25:18.687Z,20.47
2022-12-04T16:30:22.118Z,18.80
2022-12-04T16:35:25.597Z,25.70
2022-12-04T16:40:30.481Z,15.17
2022-12-04T16:45:36.529Z,12.33
2022-12-04T16:50:39.973Z,11.87
2022-12-04T16:55:47.579Z,13.10
2022-12-04T17:00:56.487Z,11.87
2022-12-04T17:06:01.419Z,10.77
2022-12-04T17:11:06.855Z,10.90
2022-12-04T17:16:12.993Z,18.80
2022-12-04T17:21:19.060Z,12.07
2022-12-04T17:26:24.084Z,15.80
2022-12-04T17:31:28.207Z,13.33
2022-12-04T17:36:31.646Z,14.43
2022-12-04T17:41:36.507Z,13.93
2022-12-04T17:46:40.166Z,11.60
2022-12-04T17:51:45.115Z,12.87
2022-12-04T17:56:54.761Z,10.67
2022-12-04T18:02:01.023Z,12.60
2022-12-04T18:07:04.951Z,23.13
2022-12-04T18:12:09.770Z,15.73
2022-12-04T18:17:13.314Z,11.07
2022-12-04T18:22:17.362Z,12.53
2022-12-04T18:27:22.262Z,15.90
2022-12-04T18:32:25.648Z,20.47
2022-12-04T18:37:29.025Z,18.07
2022-12-04T18:42:33.788Z,12.03
2022-12-04T18:47:37.730Z,11.27
2022-12-04T18:52:41.314Z,9.47
2022-12-04T18:57:46.161Z,11.63
2022-12-04T19:02:50.068Z,11.70
2022-12-04T19:07:53.833Z,10.10
2022-12-04T19:12:58.743Z,12.20
2022-12-04T19:18:02.205Z,12.13
2022-12-04T19:23:05.643Z,11.37
2022-12-04T19:28:10.506Z,12.03
2022-12-04T19:33:13.947Z,12.53
2022-12-04T19:38:17.367Z,12.10
2022-12-04T19:43:22.130Z,12.60
2022-12-04T19:48:25.512Z,12.27
2022-12-04T19:53:28.989Z,14.30
2022-12-04T19:58:35.480Z,12.80
2022-12-04T20:03:38.974Z,15.30
2022-12-04T20:08:43.518Z,17.97
2022-12-04T20:13:49.318Z,18.80
2022-12-04T20:18:53.021Z,12.90
2022-12-04T20:23:56.401Z,12.03
2022-12-04T20:29:02.404Z,13.07
2022-12-04T20:34:07.994Z,12.00
2022-12-04T20:39:12.604Z,11.37
2022-12-04T20:44:19.607Z,8.80
2022-12-04T20:49:23.085Z,9.27
2022-12-04T20:54:26.488Z,10.23
2022-12-04T20:59:31.292Z,10.73
2022-12-04T21:04:37.704Z,10.13
2022-12-04T21:09:41.093Z,10.90
2022-12-04T21:15:03.518Z,13.20
2022-12-04T21:20:08.942Z,10.27
2022-12-04T21:25:12.543Z,11.60
2022-12-04T21:30:17.447Z,15.17
2022-12-04T21:35:20.795Z,18.43
2022-12-04T21:40:24.103Z,12.47
2022-12-04T21:45:28.805Z,13.00
2022-12-04T21:50:32.242Z,15.33
2022-12-04T21:55:35.626Z,34.67
2022-12-04T22:00:40.462Z,32.57
2022-12-04T22:05:44.463Z,31.17
2022-12-04T22:10:48.708Z,53.47
2022-12-04T22:15:53.611Z,70.07
2022-12-04T22:20:56.981Z,41.00
2022-12-04T22:26:06.385Z,105.00
2022-12-04T22:31:12.965Z,82.90
2022-12-04T22:36:18.816Z,112.80
2022-12-04T22:41:24.044Z,193.37
2022-12-04T22:46:28.915Z,152.83
2022-12-04T22:51:32.849Z,169.73
2022-12-04T22:56:36.252Z,175.67
2022-12-04T23:01:41.012Z,224.77
2022-12-04T23:06:44.387Z,178.50
2022-12-04T23:11:52.361Z,57.90
2022-12-04T23:16:57.747Z,274.37
2022-12-04T23:22:01.176Z,221.00
2022-12-04T23:27:04.565Z,172.53
2022-12-04T23:32:09.295Z,217.00
2022-12-04T23:37:12.793Z,86.93
2022-12-04T23:42:16.177Z,103.57
2022-12-04T23:47:21.068Z,127.60
2022-12-04T23:52:24.473Z,128.77
2022-12-04T23:57:30.400Z,129.93
